Louellen, Kentucky
Current Conditions -  °F | °C
As of 4:35 AM on Thursday 18 Dec 2014 (Local Time) from KI35 Reporting Station
Overcast Overcast  
Wind Chill: 25°   Ceiling: 1300
Heat Index: 30°   Visibility: 7mi
Dew Point: 30°   Wind: 5mph
Humidity: 100%   Direction: 50°NE
Pressure: 30.19"   Gusts: NA
Location:  36.8509°N, 83.1611°W
Report Text: KI35 180935Z AUTO 05004KT 7SM OVC013 M01/M01 A3019 RMK AO1
Loading
Personal Weather Stations






























Interactive Weather Map New forecast layout! Learn more

10-Day Weather Forecast

Advertisements
Track Severe Weather on mobile